sensor_id;sensor_type;location;lat;lon;timestamp;pressure;altitude;pressure_sealevel;temperature;humidity
5380;BME280;2713;42.680;23.310;2023-04-06T00:00:24;94861.97;;;2.76;63.72
5380;BME280;2713;42.680;23.310;2023-04-06T00:02:50;94856.56;;;2.79;63.46
5380;BME280;2713;42.680;23.310;2023-04-06T00:05:18;94856.81;;;2.86;63.52
5380;BME280;2713;42.680;23.310;2023-04-06T00:07:45;94856.28;;;2.82;62.83
5380;BME280;2713;42.680;23.310;2023-04-06T00:10:12;94851.31;;;2.81;63.06
5380;BME280;2713;42.680;23.310;2023-04-06T00:12:39;94846.31;;;2.70;63.11
5380;BME280;2713;42.680;23.310;2023-04-06T00:15:06;94839.81;;;2.75;63.52
5380;BME280;2713;42.680;23.310;2023-04-06T00:17:35;94838.19;;;2.65;63.53
5380;BME280;2713;42.680;23.310;2023-04-06T00:20:02;94848.19;;;2.87;63.09
5380;BME280;2713;42.680;23.310;2023-04-06T00:22:29;94832.28;;;2.74;63.21
5380;BME280;2713;42.680;23.310;2023-04-06T00:24:56;94835.91;;;2.71;63.77
5380;BME280;2713;42.680;23.310;2023-04-06T00:27:23;94831.44;;;2.73;63.95
5380;BME280;2713;42.680;23.310;2023-04-06T00:29:50;94826.97;;;2.85;63.66
5380;BME280;2713;42.680;23.310;2023-04-06T00:32:17;94823.72;;;2.83;63.32
5380;BME280;2713;42.680;23.310;2023-04-06T00:34:45;94817.13;;;2.71;64.36
5380;BME280;2713;42.680;23.310;2023-04-06T00:37:12;94822.25;;;2.71;63.36
5380;BME280;2713;42.680;23.310;2023-04-06T00:39:39;94815.47;;;2.89;63.33
5380;BME280;2713;42.680;23.310;2023-04-06T00:42:10;94819.97;;;2.68;63.54
5380;BME280;2713;42.680;23.310;2023-04-06T00:44:38;94820.06;;;2.85;63.97
5380;BME280;2713;42.680;23.310;2023-04-06T00:47:05;94813.31;;;2.94;63.83
5380;BME280;2713;42.680;23.310;2023-04-06T00:49:32;94817.75;;;2.92;63.64
5380;BME280;2713;42.680;23.310;2023-04-06T00:52:01;94817.81;;;2.73;63.11
5380;BME280;2713;42.680;23.310;2023-04-06T00:54:28;94812.94;;;2.79;64.28
5380;BME280;2713;42.680;23.310;2023-04-06T00:56:56;94809.69;;;2.87;64.33
5380;BME280;2713;42.680;23.310;2023-04-06T00:59:24;94816.09;;;2.64;63.43
5380;BME280;2713;42.680;23.310;2023-04-06T01:01:52;94809.84;;;2.76;64.00
5380;BME280;2713;42.680;23.310;2023-04-06T01:04:31;94818.38;;;2.67;64.28
5380;BME280;2713;42.680;23.310;2023-04-06T01:06:59;94816.03;;;2.83;63.74
5380;BME280;2713;42.680;23.310;2023-04-06T01:09:34;94816.13;;;3.00;63.34
5380;BME280;2713;42.680;23.310;2023-04-06T01:12:05;94812.25;;;2.87;63.60
5380;BME280;2713;42.680;23.310;2023-04-06T01:14:33;94813.44;;;2.92;63.02
5380;BME280;2713;42.680;23.310;2023-04-06T01:17:00;94819.50;;;3.01;63.20
5380;BME280;2713;42.680;23.310;2023-04-06T01:19:30;94801.25;;;3.04;62.86
5380;BME280;2713;42.680;23.310;2023-04-06T01:21:57;94809.38;;;2.99;63.51
5380;BME280;2713;42.680;23.310;2023-04-06T01:24:31;94804.94;;;2.82;63.87
5380;BME280;2713;42.680;23.310;2023-04-06T01:27:21;94802.16;;;2.66;63.95
5380;BME280;2713;42.680;23.310;2023-04-06T01:29:59;94806.06;;;2.61;64.50
5380;BME280;2713;42.680;23.310;2023-04-06T01:32:49;94797.44;;;2.62;65.53
5380;BME280;2713;42.680;23.310;2023-04-06T01:35:23;94799.16;;;2.71;65.36
5380;BME280;2713;42.680;23.310;2023-04-06T01:37:58;94783.38;;;2.66;64.72
5380;BME280;2713;42.680;23.310;2023-04-06T01:40:31;94780.97;;;2.54;65.04
5380;BME280;2713;42.680;23.310;2023-04-06T01:42:58;94792.56;;;2.59;64.65
5380;BME280;2713;42.680;23.310;2023-04-06T01:45:32;94791.22;;;2.64;64.70
5380;BME280;2713;42.680;23.310;2023-04-06T01:48:08;94792.03;;;2.65;65.07
5380;BME280;2713;42.680;23.310;2023-04-06T01:50:35;94790.94;;;2.58;66.08
5380;BME280;2713;42.680;23.310;2023-04-06T01:53:02;94779.97;;;2.75;65.68
5380;BME280;2713;42.680;23.310;2023-04-06T01:55:31;94788.91;;;2.71;65.60
5380;BME280;2713;42.680;23.310;2023-04-06T01:58:16;94786.22;;;2.63;65.15
5380;BME280;2713;42.680;23.310;2023-04-06T02:00:44;94780.91;;;2.83;65.49
5380;BME280;2713;42.680;23.310;2023-04-06T02:03:11;94779.16;;;2.84;65.33
5380;BME280;2713;42.680;23.310;2023-04-06T02:05:40;94775.34;;;2.88;64.08
5380;BME280;2713;42.680;23.310;2023-04-06T02:08:39;94772.00;;;2.87;63.94
5380;BME280;2713;42.680;23.310;2023-04-06T02:11:07;94773.31;;;2.91;63.89
5380;BME280;2713;42.680;23.310;2023-04-06T02:13:41;94780.88;;;2.93;64.69
5380;BME280;2713;42.680;23.310;2023-04-06T02:16:09;94746.69;;;2.55;63.85
5380;BME280;2713;42.680;23.310;2023-04-06T02:18:36;94767.41;;;2.81;64.42
5380;BME280;2713;42.680;23.310;2023-04-06T02:21:03;94775.47;;;2.96;63.92
5380;BME280;2713;42.680;23.310;2023-04-06T02:23:30;94774.81;;;2.94;65.20
5380;BME280;2713;42.680;23.310;2023-04-06T02:25:57;94772.91;;;2.96;63.80
5380;BME280;2713;42.680;23.310;2023-04-06T02:28:25;94772.53;;;2.91;64.51
5380;BME280;2713;42.680;23.310;2023-04-06T02:30:52;94771.81;;;2.98;63.39
5380;BME280;2713;42.680;23.310;2023-04-06T02:33:23;94768.41;;;3.08;63.44
5380;BME280;2713;42.680;23.310;2023-04-06T02:35:50;94772.78;;;2.97;63.48
5380;BME280;2713;42.680;23.310;2023-04-06T02:38:17;94778.94;;;3.14;64.15
5380;BME280;2713;42.680;23.310;2023-04-06T02:40:44;94771.03;;;3.25;63.74
5380;BME280;2713;42.680;23.310;2023-04-06T02:43:19;94780.63;;;3.23;63.62
5380;BME280;2713;42.680;23.310;2023-04-06T02:45:48;94778.44;;;3.01;64.05
5380;BME280;2713;42.680;23.310;2023-04-06T02:48:15;94777.72;;;3.08;63.45
5380;BME280;2713;42.680;23.310;2023-04-06T02:50:42;94777.53;;;3.20;63.62
5380;BME280;2713;42.680;23.310;2023-04-06T02:53:09;94775.25;;;3.17;64.04
5380;BME280;2713;42.680;23.310;2023-04-06T02:55:37;94776.88;;;3.18;63.28
5380;BME280;2713;42.680;23.310;2023-04-06T02:58:04;94770.00;;;3.08;63.80
5380;BME280;2713;42.680;23.310;2023-04-06T03:00:40;94767.91;;;2.94;64.22
5380;BME280;2713;42.680;23.310;2023-04-06T03:03:08;94772.72;;;3.07;64.58
5380;BME280;2713;42.680;23.310;2023-04-06T03:05:35;94778.31;;;2.93;63.54
5380;BME280;2713;42.680;23.310;2023-04-06T03:08:02;94779.44;;;2.81;63.94
5380;BME280;2713;42.680;23.310;2023-04-06T03:10:41;94776.19;;;2.79;64.06
5380;BME280;2713;42.680;23.310;2023-04-06T03:13:08;94776.03;;;2.90;64.01
5380;BME280;2713;42.680;23.310;2023-04-06T03:15:45;94768.94;;;3.11;63.75
5380;BME280;2713;42.680;23.310;2023-04-06T03:18:20;94770.56;;;3.02;63.71
5380;BME280;2713;42.680;23.310;2023-04-06T03:20:47;94767.59;;;3.07;63.58
5380;BME280;2713;42.680;23.310;2023-04-06T03:23:16;94764.09;;;3.08;64.01
5380;BME280;2713;42.680;23.310;2023-04-06T03:25:44;94773.56;;;2.98;64.10
5380;BME280;2713;42.680;23.310;2023-04-06T03:28:15;94771.09;;;3.06;63.72
5380;BME280;2713;42.680;23.310;2023-04-06T03:30:50;94769.28;;;2.89;64.89
5380;BME280;2713;42.680;23.310;2023-04-06T03:33:24;94771.88;;;3.16;63.14
5380;BME280;2713;42.680;23.310;2023-04-06T03:35:54;94762.06;;;3.12;63.04
5380;BME280;2713;42.680;23.310;2023-04-06T03:38:23;94772.00;;;3.24;63.90
5380;BME280;2713;42.680;23.310;2023-04-06T03:40:50;94772.03;;;3.15;63.34
5380;BME280;2713;42.680;23.310;2023-04-06T03:43:21;94760.22;;;2.85;64.29
5380;BME280;2713;42.680;23.310;2023-04-06T03:45:48;94769.56;;;2.86;64.21
5380;BME280;2713;42.680;23.310;2023-04-06T03:48:15;94766.94;;;2.95;63.91
5380;BME280;2713;42.680;23.310;2023-04-06T03:50:43;94772.81;;;2.78;64.41
5380;BME280;2713;42.680;23.310;2023-04-06T03:53:10;94765.09;;;2.88;63.85
5380;BME280;2713;42.680;23.310;2023-04-06T03:55:37;94767.06;;;3.03;63.79
5380;BME280;2713;42.680;23.310;2023-04-06T03:58:05;94772.91;;;2.96;64.28
5380;BME280;2713;42.680;23.310;2023-04-06T04:00:32;94763.97;;;3.00;64.16
5380;BME280;2713;42.680;23.310;2023-04-06T04:02:59;94769.25;;;2.98;64.10
5380;BME280;2713;42.680;23.310;2023-04-06T04:05:27;94764.91;;;2.99;64.22
5380;BME280;2713;42.680;23.310;2023-04-06T04:07:55;94764.47;;;3.13;63.85
5380;BME280;2713;42.680;23.310;2023-04-06T04:10:25;94766.78;;;3.06;63.98
5380;BME280;2713;42.680;23.310;2023-04-06T04:12:52;94768.41;;;3.08;64.04
5380;BME280;2713;42.680;23.310;2023-04-06T04:15:19;94755.88;;;2.95;64.12
5380;BME280;2713;42.680;23.310;2023-04-06T04:17:47;94772.19;;;3.03;64.26
5380;BME280;2713;42.680;23.310;2023-04-06T04:20:15;94770.31;;;3.33;62.83
5380;BME280;2713;42.680;23.310;2023-04-06T04:22:42;94764.34;;;3.87;64.51
5380;BME280;2713;42.680;23.310;2023-04-06T04:25:11;94771.75;;;3.72;63.37
5380;BME280;2713;42.680;23.310;2023-04-06T04:27:43;94768.41;;;3.62;61.87
5380;BME280;2713;42.680;23.310;2023-04-06T04:30:11;94773.50;;;3.44;63.02
5380;BME280;2713;42.680;23.310;2023-04-06T04:32:38;94771.31;;;3.22;63.29
5380;BME280;2713;42.680;23.310;2023-04-06T04:35:08;94746.31;;;3.24;63.32
5380;BME280;2713;42.680;23.310;2023-04-06T04:37:38;94778.53;;;3.64;61.88
5380;BME280;2713;42.680;23.310;2023-04-06T04:40:07;94777.84;;;3.44;62.83
5380;BME280;2713;42.680;23.310;2023-04-06T04:42:45;94775.91;;;3.46;63.11
5380;BME280;2713;42.680;23.310;2023-04-06T04:45:18;94772.50;;;3.28;63.00
5380;BME280;2713;42.680;23.310;2023-04-06T04:47:45;94772.19;;;3.40;63.80
5380;BME280;2713;42.680;23.310;2023-04-06T04:50:15;94770.00;;;3.45;62.81
5380;BME280;2713;42.680;23.310;2023-04-06T04:52:44;94769.25;;;3.53;62.44
5380;BME280;2713;42.680;23.310;2023-04-06T04:55:15;94765.28;;;3.41;62.69
5380;BME280;2713;42.680;23.310;2023-04-06T04:57:47;94769.50;;;3.32;63.63
5380;BME280;2713;42.680;23.310;2023-04-06T05:00:15;94771.13;;;3.33;63.25
5380;BME280;2713;42.680;23.310;2023-04-06T05:02:44;94761.53;;;3.35;62.99
5380;BME280;2713;42.680;23.310;2023-04-06T05:05:30;94764.53;;;3.31;63.29
5380;BME280;2713;42.680;23.310;2023-04-06T05:07:58;94768.94;;;3.38;63.40
5380;BME280;2713;42.680;23.310;2023-04-06T05:10:36;94761.59;;;3.43;63.47
5380;BME280;2713;42.680;23.310;2023-04-06T05:13:05;94762.53;;;3.52;63.47
5380;BME280;2713;42.680;23.310;2023-04-06T05:15:32;94762.31;;;3.63;62.79
5380;BME280;2713;42.680;23.310;2023-04-06T05:18:07;94763.50;;;3.69;63.24
5380;BME280;2713;42.680;23.310;2023-04-06T05:20:35;94769.03;;;3.46;63.90
5380;BME280;2713;42.680;23.310;2023-04-06T05:23:02;94761.25;;;3.38;63.45
5380;BME280;2713;42.680;23.310;2023-04-06T05:25:30;94769.78;;;3.56;63.59
5380;BME280;2713;42.680;23.310;2023-04-06T05:28:05;94775.25;;;3.71;62.85
5380;BME280;2713;42.680;23.310;2023-04-06T05:30:35;94774.81;;;3.76;62.63
5380;BME280;2713;42.680;23.310;2023-04-06T05:33:02;94765.94;;;3.43;64.53
5380;BME280;2713;42.680;23.310;2023-04-06T05:35:41;94768.13;;;3.38;65.19
5380;BME280;2713;42.680;23.310;2023-04-06T05:38:11;94764.19;;;3.43;64.71
5380;BME280;2713;42.680;23.310;2023-04-06T05:40:38;94765.50;;;3.47;64.70
5380;BME280;2713;42.680;23.310;2023-04-06T05:43:11;94759.50;;;3.29;65.46
5380;BME280;2713;42.680;23.310;2023-04-06T05:45:44;94751.25;;;3.35;65.55
5380;BME280;2713;42.680;23.310;2023-04-06T05:48:10;94759.09;;;3.34;65.31
5380;BME280;2713;42.680;23.310;2023-04-06T05:50:37;94758.16;;;3.35;65.55
5380;BME280;2713;42.680;23.310;2023-04-06T05:53:05;94761.03;;;3.49;65.78
5380;BME280;2713;42.680;23.310;2023-04-06T05:55:38;94759.22;;;3.32;65.96
5380;BME280;2713;42.680;23.310;2023-04-06T05:58:11;94757.63;;;3.31;66.66
5380;BME280;2713;42.680;23.310;2023-04-06T06:00:38;94751.03;;;3.46;65.51
5380;BME280;2713;42.680;23.310;2023-04-06T06:03:07;94728.31;;;4.66;88.46
5380;BME280;2713;42.680;23.310;2023-04-06T06:05:34;94720.84;;;7.09;93.04
5380;BME280;2713;42.680;23.310;2023-04-06T06:08:13;94755.13;;;5.15;62.73
5380;BME280;2713;42.680;23.310;2023-04-06T06:10:40;94753.94;;;4.49;64.56
5380;BME280;2713;42.680;23.310;2023-04-06T06:13:09;94756.53;;;4.32;63.88
5380;BME280;2713;42.680;23.310;2023-04-06T06:15:37;94754.41;;;4.27;64.63
5380;BME280;2713;42.680;23.310;2023-04-06T06:18:05;94750.00;;;4.37;65.57
5380;BME280;2713;42.680;23.310;2023-04-06T06:20:32;94755.63;;;4.58;69.29
5380;BME280;2713;42.680;23.310;2023-04-06T06:23:02;94744.66;;;5.92;74.26
5380;BME280;2713;42.680;23.310;2023-04-06T06:25:29;94753.00;;;5.86;63.11
5380;BME280;2713;42.680;23.310;2023-04-06T06:27:57;94749.75;;;5.84;61.06
5380;BME280;2713;42.680;23.310;2023-04-06T06:30:26;94746.81;;;5.71;60.95
5380;BME280;2713;42.680;23.310;2023-04-06T06:32:54;94729.31;;;7.34;84.16
5380;BME280;2713;42.680;23.310;2023-04-06T06:35:21;94756.13;;;6.05;59.57
5380;BME280;2713;42.680;23.310;2023-04-06T06:37:48;94759.38;;;5.74;60.48
5380;BME280;2713;42.680;23.310;2023-04-06T06:40:18;94757.47;;;5.84;61.13
5380;BME280;2713;42.680;23.310;2023-04-06T06:42:47;94754.63;;;5.95;60.61
5380;BME280;2713;42.680;23.310;2023-04-06T06:45:21;94759.75;;;5.79;60.04
5380;BME280;2713;42.680;23.310;2023-04-06T06:47:48;94767.66;;;5.85;60.19
5380;BME280;2713;42.680;23.310;2023-04-06T06:50:16;94761.97;;;5.74;60.18
5380;BME280;2713;42.680;23.310;2023-04-06T06:52:44;94770.47;;;5.66;60.48
5380;BME280;2713;42.680;23.310;2023-04-06T06:55:11;94768.00;;;5.90;59.46
5380;BME280;2713;42.680;23.310;2023-04-06T06:57:38;94767.03;;;5.49;59.85
5380;BME280;2713;42.680;23.310;2023-04-06T07:00:07;94764.81;;;5.21;60.33
5380;BME280;2713;42.680;23.310;2023-04-06T07:02:34;94757.69;;;4.81;62.16
5380;BME280;2713;42.680;23.310;2023-04-06T07:05:02;94759.81;;;4.85;62.69
5380;BME280;2713;42.680;23.310;2023-04-06T07:07:31;94763.53;;;5.17;62.20
5380;BME280;2713;42.680;23.310;2023-04-06T07:09:58;94755.00;;;5.24;62.24
5380;BME280;2713;42.680;23.310;2023-04-06T07:12:25;94754.13;;;5.07;61.20
5380;BME280;2713;42.680;23.310;2023-04-06T07:14:52;94762.75;;;5.24;61.10
5380;BME280;2713;42.680;23.310;2023-04-06T07:17:19;94751.66;;;4.98;61.22
5380;BME280;2713;42.680;23.310;2023-04-06T07:19:46;94755.09;;;4.81;61.70
5380;BME280;2713;42.680;23.310;2023-04-06T07:22:13;94753.50;;;5.05;61.77
5380;BME280;2713;42.680;23.310;2023-04-06T07:24:41;94743.00;;;5.07;61.21
5380;BME280;2713;42.680;23.310;2023-04-06T07:27:08;94746.38;;;5.41;61.28
5380;BME280;2713;42.680;23.310;2023-04-06T07:29:35;94756.63;;;5.67;59.93
5380;BME280;2713;42.680;23.310;2023-04-06T07:32:02;94754.13;;;5.41;60.76
5380;BME280;2713;42.680;23.310;2023-04-06T07:34:31;94762.28;;;5.29;61.12
5380;BME280;2713;42.680;23.310;2023-04-06T07:36:58;94750.47;;;5.18;60.64
5380;BME280;2713;42.680;23.310;2023-04-06T07:39:28;94759.38;;;5.24;60.69
5380;BME280;2713;42.680;23.310;2023-04-06T07:41:57;94753.28;;;5.33;60.26
5380;BME280;2713;42.680;23.310;2023-04-06T07:44:24;94750.63;;;5.50;60.04
5380;BME280;2713;42.680;23.310;2023-04-06T07:46:52;94762.59;;;5.76;58.68
5380;BME280;2713;42.680;23.310;2023-04-06T07:49:21;94752.09;;;6.35;57.12
5380;BME280;2713;42.680;23.310;2023-04-06T07:51:49;94746.44;;;6.48;57.33
5380;BME280;2713;42.680;23.310;2023-04-06T07:54:16;94747.19;;;6.89;56.32
5380;BME280;2713;42.680;23.310;2023-04-06T07:56:43;94744.47;;;6.82;55.94
5380;BME280;2713;42.680;23.310;2023-04-06T07:59:11;94753.69;;;6.77;55.59
5380;BME280;2713;42.680;23.310;2023-04-06T08:01:39;94745.94;;;6.85;55.37
5380;BME280;2713;42.680;23.310;2023-04-06T08:04:06;94742.31;;;7.18;54.68
5380;BME280;2713;42.680;23.310;2023-04-06T08:06:32;94744.75;;;7.11;54.46
5380;BME280;2713;42.680;23.310;2023-04-06T08:09:00;94739.78;;;7.02;54.90
5380;BME280;2713;42.680;23.310;2023-04-06T08:11:27;94746.22;;;7.53;54.08
5380;BME280;2713;42.680;23.310;2023-04-06T08:13:54;94748.69;;;6.83;54.22
5380;BME280;2713;42.680;23.310;2023-04-06T08:16:23;94743.50;;;6.83;54.92
5380;BME280;2713;42.680;23.310;2023-04-06T08:18:50;94746.19;;;7.14;54.92
5380;BME280;2713;42.680;23.310;2023-04-06T08:21:17;94750.00;;;7.34;54.05
5380;BME280;2713;42.680;23.310;2023-04-06T08:23:44;94746.25;;;7.45;53.69
5380;BME280;2713;42.680;23.310;2023-04-06T08:26:11;94744.94;;;7.49;53.83
5380;BME280;2713;42.680;23.310;2023-04-06T08:28:38;94761.78;;;7.76;53.57
5380;BME280;2713;42.680;23.310;2023-04-06T08:31:05;94750.38;;;8.15;51.62
5380;BME280;2713;42.680;23.310;2023-04-06T08:33:34;94755.66;;;8.30;51.20
5380;BME280;2713;42.680;23.310;2023-04-06T08:36:08;94746.75;;;7.71;51.94
5380;BME280;2713;42.680;23.310;2023-04-06T08:38:36;94752.09;;;7.31;52.92
5380;BME280;2713;42.680;23.310;2023-04-06T08:41:07;94751.91;;;7.40;53.71
5380;BME280;2713;42.680;23.310;2023-04-06T08:43:38;94745.66;;;7.65;52.84
5380;BME280;2713;42.680;23.310;2023-04-06T08:46:08;94752.81;;;7.63;52.38
5380;BME280;2713;42.680;23.310;2023-04-06T08:48:38;94754.34;;;7.42;52.33
5380;BME280;2713;42.680;23.310;2023-04-06T08:51:05;94746.88;;;7.00;52.23
5380;BME280;2713;42.680;23.310;2023-04-06T08:53:32;94760.50;;;6.53;53.60
5380;BME280;2713;42.680;23.310;2023-04-06T08:55:59;94756.63;;;6.57;53.89
5380;BME280;2713;42.680;23.310;2023-04-06T08:58:33;94752.41;;;6.81;53.08
5380;BME280;2713;42.680;23.310;2023-04-06T09:01:01;94754.50;;;6.69;53.86
5380;BME280;2713;42.680;23.310;2023-04-06T09:03:29;94753.06;;;6.58;54.03
5380;BME280;2713;42.680;23.310;2023-04-06T09:05:59;94747.88;;;6.91;52.42
5380;BME280;2713;42.680;23.310;2023-04-06T09:08:26;94745.69;;;7.19;51.80
5380;BME280;2713;42.680;23.310;2023-04-06T09:10:53;94740.16;;;7.30;51.64
5380;BME280;2713;42.680;23.310;2023-04-06T09:13:19;94745.50;;;7.98;50.08
5380;BME280;2713;42.680;23.310;2023-04-06T09:15:47;94751.78;;;7.73;50.51
5380;BME280;2713;42.680;23.310;2023-04-06T09:18:28;94743.13;;;7.57;50.22
5380;BME280;2713;42.680;23.310;2023-04-06T09:21:01;94750.28;;;7.47;51.70
5380;BME280;2713;42.680;23.310;2023-04-06T09:23:28;94740.75;;;7.48;51.62
5380;BME280;2713;42.680;23.310;2023-04-06T09:26:09;94735.06;;;7.52;52.36
5380;BME280;2713;42.680;23.310;2023-04-06T09:28:44;94738.97;;;7.48;52.52
5380;BME280;2713;42.680;23.310;2023-04-06T09:31:11;94742.38;;;7.80;51.37
5380;BME280;2713;42.680;23.310;2023-04-06T09:33:39;94729.38;;;7.18;52.74
5380;BME280;2713;42.680;23.310;2023-04-06T09:36:07;94737.25;;;7.33;51.80
5380;BME280;2713;42.680;23.310;2023-04-06T09:38:37;94737.34;;;7.08;52.45
5380;BME280;2713;42.680;23.310;2023-04-06T09:41:04;94742.66;;;7.15;52.83
5380;BME280;2713;42.680;23.310;2023-04-06T09:43:31;94736.91;;;7.36;52.55
5380;BME280;2713;42.680;23.310;2023-04-06T09:45:59;94736.75;;;7.37;51.24
5380;BME280;2713;42.680;23.310;2023-04-06T09:48:31;94732.25;;;7.23;51.92
5380;BME280;2713;42.680;23.310;2023-04-06T09:51:03;94737.72;;;7.36;51.66
5380;BME280;2713;42.680;23.310;2023-04-06T09:53:34;94740.25;;;7.44;51.82
5380;BME280;2713;42.680;23.310;2023-04-06T09:56:06;94740.00;;;7.23;50.81
5380;BME280;2713;42.680;23.310;2023-04-06T09:58:36;94729.09;;;7.05;51.30
5380;BME280;2713;42.680;23.310;2023-04-06T10:01:07;94724.41;;;7.47;50.81
5380;BME280;2713;42.680;23.310;2023-04-06T10:03:40;94733.13;;;7.07;51.31
5380;BME280;2713;42.680;23.310;2023-04-06T10:06:13;94720.41;;;7.76;64.45
5380;BME280;2713;42.680;23.310;2023-04-06T10:08:45;94737.41;;;7.70;50.74
5380;BME280;2713;42.680;23.310;2023-04-06T10:11:14;94732.63;;;7.59;50.22
5380;BME280;2713;42.680;23.310;2023-04-06T10:13:42;94720.88;;;6.93;51.41
5380;BME280;2713;42.680;23.310;2023-04-06T10:16:09;94735.75;;;6.83;52.03
5380;BME280;2713;42.680;23.310;2023-04-06T10:18:38;94722.69;;;6.85;51.90
5380;BME280;2713;42.680;23.310;2023-04-06T10:21:09;94727.19;;;6.91;51.41
5380;BME280;2713;42.680;23.310;2023-04-06T10:23:43;94718.78;;;6.89;51.80
5380;BME280;2713;42.680;23.310;2023-04-06T10:26:13;94719.78;;;6.88;51.67
5380;BME280;2713;42.680;23.310;2023-04-06T10:28:42;94712.44;;;7.07;51.06
5380;BME280;2713;42.680;23.310;2023-04-06T10:31:09;94725.66;;;7.12;50.63
5380;BME280;2713;42.680;23.310;2023-04-06T10:33:37;94709.53;;;7.19;50.37
5380;BME280;2713;42.680;23.310;2023-04-06T10:36:11;94713.75;;;6.95;51.43
5380;BME280;2713;42.680;23.310;2023-04-06T10:38:38;94708.78;;;6.86;50.95
5380;BME280;2713;42.680;23.310;2023-04-06T10:41:08;94696.06;;;6.76;51.31
5380;BME280;2713;42.680;23.310;2023-04-06T10:43:36;94706.25;;;6.61;52.44
5380;BME280;2713;42.680;23.310;2023-04-06T10:46:04;94716.25;;;6.81;51.89
5380;BME280;2713;42.680;23.310;2023-04-06T10:48:38;94707.44;;;7.06;51.99
5380;BME280;2713;42.680;23.310;2023-04-06T10:51:10;94703.91;;;7.77;49.74
5380;BME280;2713;42.680;23.310;2023-04-06T10:53:37;94704.16;;;7.90;49.39
5380;BME280;2713;42.680;23.310;2023-04-06T10:56:11;94702.31;;;7.68;48.95
5380;BME280;2713;42.680;23.310;2023-04-06T10:58:38;94705.09;;;7.35;49.23
5380;BME280;2713;42.680;23.310;2023-04-06T11:01:10;94709.28;;;7.36;50.24
5380;BME280;2713;42.680;23.310;2023-04-06T11:03:43;94704.19;;;7.51;50.48
5380;BME280;2713;42.680;23.310;2023-04-06T11:06:10;94694.56;;;7.68;49.88
5380;BME280;2713;42.680;23.310;2023-04-06T11:08:38;94707.16;;;7.71;48.92
5380;BME280;2713;42.680;23.310;2023-04-06T11:11:06;94693.78;;;7.90;49.34
5380;BME280;2713;42.680;23.310;2023-04-06T11:13:42;94698.28;;;7.96;49.42
5380;BME280;2713;42.680;23.310;2023-04-06T11:16:13;94688.72;;;7.96;48.68
5380;BME280;2713;42.680;23.310;2023-04-06T11:18:48;94692.25;;;8.49;48.26
5380;BME280;2713;42.680;23.310;2023-04-06T11:21:15;94686.06;;;8.50;48.04
5380;BME280;2713;42.680;23.310;2023-04-06T11:23:42;94692.19;;;8.34;48.52
5380;BME280;2713;42.680;23.310;2023-04-06T11:26:11;94684.69;;;8.39;47.94
5380;BME280;2713;42.680;23.310;2023-04-06T11:28:38;94675.59;;;8.43;47.98
5380;BME280;2713;42.680;23.310;2023-04-06T11:31:07;94676.16;;;8.53;47.90
5380;BME280;2713;42.680;23.310;2023-04-06T11:33:35;94681.50;;;8.37;47.45
5380;BME280;2713;42.680;23.310;2023-04-06T11:36:03;94680.50;;;8.15;48.66
5380;BME280;2713;42.680;23.310;2023-04-06T11:38:30;94674.19;;;8.18;48.30
5380;BME280;2713;42.680;23.310;2023-04-06T11:40:57;94679.13;;;8.05;48.28
5380;BME280;2713;42.680;23.310;2023-04-06T11:43:28;94677.81;;;7.86;48.09
5380;BME280;2713;42.680;23.310;2023-04-06T11:45:59;94675.91;;;7.80;49.15
5380;BME280;2713;42.680;23.310;2023-04-06T11:48:31;94675.44;;;7.99;49.15
5380;BME280;2713;42.680;23.310;2023-04-06T11:50:59;94667.03;;;7.75;48.73
5380;BME280;2713;42.680;23.310;2023-04-06T11:53:27;94665.03;;;7.62;49.06
5380;BME280;2713;42.680;23.310;2023-04-06T11:55:55;94661.41;;;7.71;48.25
5380;BME280;2713;42.680;23.310;2023-04-06T11:58:22;94653.09;;;7.84;47.98
5380;BME280;2713;42.680;23.310;2023-04-06T12:01:04;94661.72;;;7.76;48.75
5380;BME280;2713;42.680;23.310;2023-04-06T12:03:32;94663.19;;;7.71;48.70
5380;BME280;2713;42.680;23.310;2023-04-06T12:05:59;94662.56;;;7.69;49.81
5380;BME280;2713;42.680;23.310;2023-04-06T12:08:26;94662.41;;;7.70;49.67
5380;BME280;2713;42.680;23.310;2023-04-06T12:10:52;94655.72;;;7.76;49.74
5380;BME280;2713;42.680;23.310;2023-04-06T12:13:19;94659.94;;;7.77;50.14
5380;BME280;2713;42.680;23.310;2023-04-06T12:15:46;94656.81;;;7.58;50.15
5380;BME280;2713;42.680;23.310;2023-04-06T12:18:13;94657.78;;;7.57;50.47
5380;BME280;2713;42.680;23.310;2023-04-06T12:20:41;94661.34;;;7.56;49.67
5380;BME280;2713;42.680;23.310;2023-04-06T12:23:09;94654.78;;;7.46;49.54
5380;BME280;2713;42.680;23.310;2023-04-06T12:25:35;94652.22;;;7.38;49.53
5380;BME280;2713;42.680;23.310;2023-04-06T12:28:02;94661.88;;;7.44;49.33
5380;BME280;2713;42.680;23.310;2023-04-06T12:30:29;94652.34;;;7.44;49.42
5380;BME280;2713;42.680;23.310;2023-04-06T12:32:57;94646.72;;;7.41;50.02
5380;BME280;2713;42.680;23.310;2023-04-06T12:35:24;94652.25;;;7.60;49.11
5380;BME280;2713;42.680;23.310;2023-04-06T12:37:53;94642.84;;;7.68;48.46
5380;BME280;2713;42.680;23.310;2023-04-06T12:40:20;94653.59;;;7.56;48.98
5380;BME280;2713;42.680;23.310;2023-04-06T12:42:47;94647.91;;;7.30;49.21
5380;BME280;2713;42.680;23.310;2023-04-06T12:45:14;94644.50;;;7.30;50.05
5380;BME280;2713;42.680;23.310;2023-04-06T12:47:41;94639.72;;;7.49;49.59
5380;BME280;2713;42.680;23.310;2023-04-06T12:50:08;94636.28;;;7.57;49.18
5380;BME280;2713;42.680;23.310;2023-04-06T12:52:35;94634.91;;;7.46;49.18
5380;BME280;2713;42.680;23.310;2023-04-06T12:55:04;94630.41;;;7.40;49.77
5380;BME280;2713;42.680;23.310;2023-04-06T12:57:31;94639.31;;;7.60;49.70
5380;BME280;2713;42.680;23.310;2023-04-06T12:59:58;94630.31;;;7.56;49.99
5380;BME280;2713;42.680;23.310;2023-04-06T13:02:25;94632.75;;;7.81;49.79
5380;BME280;2713;42.680;23.310;2023-04-06T13:04:52;94633.13;;;7.70;49.39
5380;BME280;2713;42.680;23.310;2023-04-06T13:07:19;94625.16;;;7.56;49.19
5380;BME280;2713;42.680;23.310;2023-04-06T13:09:46;94635.16;;;7.59;49.09
5380;BME280;2713;42.680;23.310;2023-04-06T13:12:16;94621.53;;;7.65;49.81
5380;BME280;2713;42.680;23.310;2023-04-06T13:14:43;94626.31;;;7.77;48.64
5380;BME280;2713;42.680;23.310;2023-04-06T13:17:09;94621.25;;;7.83;48.29
5380;BME280;2713;42.680;23.310;2023-04-06T13:19:36;94618.88;;;7.74;48.74
5380;BME280;2713;42.680;23.310;2023-04-06T13:22:03;94615.06;;;7.61;49.23
5380;BME280;2713;42.680;23.310;2023-04-06T13:24:30;94622.28;;;7.43;50.59
5380;BME280;2713;42.680;23.310;2023-04-06T13:26:57;94619.97;;;7.56;49.89
5380;BME280;2713;42.680;23.310;2023-04-06T13:29:25;94626.41;;;7.83;50.09
5380;BME280;2713;42.680;23.310;2023-04-06T13:31:52;94617.91;;;7.97;49.17